createdAt,value
2023-01-02T00:00:02.008Z,100274.87
2023-01-02T00:02:40.289Z,100265.47
2023-01-02T00:05:09.498Z,100279.25
2023-01-02T00:07:37.591Z,100267.91
2023-01-02T00:10:05.899Z,100273.25
2023-01-02T00:12:34.309Z,100271.44
2023-01-02T00:15:03.248Z,100268.00
2023-01-02T00:17:31.143Z,100253.28
2023-01-02T00:19:59.571Z,100267.87
2023-01-02T00:22:27.580Z,100262.69
2023-01-02T00:24:55.510Z,100257.63
2023-01-02T00:27:23.938Z,100261.72
2023-01-02T00:29:51.985Z,100259.25
2023-01-02T00:32:19.892Z,100251.59
2023-01-02T00:34:48.207Z,100256.75
2023-01-02T00:37:16.129Z,100263.47
2023-01-02T00:39:44.315Z,100270.56
2023-01-02T00:42:12.639Z,100272.19
2023-01-02T00:44:40.539Z,100265.44
2023-01-02T00:47:08.512Z,100270.16
2023-01-02T00:49:36.729Z,100254.16
2023-01-02T00:52:04.778Z,100266.03
2023-01-02T00:54:32.679Z,100269.59
2023-01-02T00:57:00.990Z,100265.25
2023-01-02T00:59:28.895Z,100273.81
2023-01-02T01:01:57.009Z,100271.88
2023-01-02T01:04:25.420Z,100268.50
2023-01-02T01:06:53.326Z,100263.28
2023-01-02T01:09:22.108Z,100267.66
2023-01-02T01:11:50.401Z,100258.84
2023-01-02T01:14:18.440Z,100261.78
2023-01-02T01:16:46.580Z,100258.81
2023-01-02T01:19:14.858Z,100267.31
2023-01-02T01:21:42.808Z,100269.00
2023-01-02T01:24:10.808Z,100267.37
2023-01-02T01:26:39.239Z,100267.50
2023-01-02T01:29:07.323Z,100259.72
2023-01-02T01:31:35.254Z,100259.69
2023-01-02T01:34:03.608Z,100255.28
2023-01-02T01:36:32.030Z,100257.87
2023-01-02T01:38:59.981Z,100253.38
2023-01-02T01:41:28.338Z,100242.81
2023-01-02T01:43:58.578Z,100239.44
2023-01-02T01:46:41.727Z,100232.97
2023-01-02T01:49:29.400Z,100228.47
2023-01-02T01:52:01.358Z,100223.31
2023-01-02T01:54:38.820Z,100227.53
2023-01-02T01:57:21.248Z,100214.44
2023-01-02T01:59:49.778Z,100211.31
2023-01-02T02:02:17.927Z,100204.28
2023-01-02T02:04:46.637Z,100211.19
2023-01-02T02:07:14.594Z,100210.47
2023-01-02T02:09:47.491Z,100210.47
2023-01-02T02:12:19.815Z,100210.47
2023-01-02T02:14:51.068Z,100198.22
2023-01-02T02:17:38.108Z,100199.19
2023-01-02T02:20:06.350Z,100205.28
2023-01-02T02:23:02.847Z,100200.72
2023-01-02T02:25:52.473Z,100191.78
2023-01-02T10:05:13.148Z,100173.16
2023-01-02T10:07:44.732Z,100175.75
2023-01-02T10:10:28.879Z,100170.59
2023-01-02T10:13:06.537Z,100179.37
2023-01-02T10:15:35.615Z,100173.19
2023-01-02T10:18:29.157Z,100171.28
2023-01-02T10:21:16.170Z,100168.75
2023-01-02T10:23:50.638Z,100164.59
2023-01-02T10:26:24.521Z,100162.06
2023-01-02T10:29:09.864Z,100159.59
2023-01-02T10:31:48.617Z,100152.47
2023-01-02T10:34:22.459Z,100149.13
2023-01-02T10:36:51.458Z,100148.25
2023-01-02T10:39:22.622Z,100145.75
2023-01-02T10:41:55.773Z,100140.53
2023-01-02T10:44:36.083Z,100137.03
2023-01-02T10:47:39.791Z,100130.94
2023-01-02T10:50:16.868Z,100128.34
2023-01-02T10:53:06.895Z,100122.34
2023-01-02T10:55:46.189Z,100116.25
2023-01-02T10:58:23.153Z,100111.97
2023-01-02T11:01:03.765Z,100114.59
2023-01-02T11:03:33.051Z,100111.91
2023-01-02T11:06:26.886Z,100112.09
2023-01-02T11:09:20.354Z,100105.84
2023-01-02T11:11:57.711Z,100108.59
2023-01-02T11:14:34.792Z,100104.22
2023-01-02T11:17:22.416Z,100100.84
2023-01-02T11:19:52.701Z,100100.84
2023-01-02T11:22:24.323Z,100093.88
2023-01-02T11:25:00.469Z,100087.81
2023-01-02T11:27:58.007Z,100087.75
2023-01-02T11:30:36.506Z,100090.34
2023-01-02T11:33:14.061Z,100085.84
2023-01-02T11:35:51.828Z,100076.75
2023-01-02T11:38:29.735Z,100075.97
2023-01-02T11:41:03.257Z,100062.41
2023-01-02T11:43:52.293Z,100057.78
2023-01-02T11:46:36.858Z,100052.38
2023-01-02T11:49:23.718Z,100055.59
2023-01-02T11:51:58.548Z,100054.66
2023-01-02T11:55:37.743Z,100044.16
2023-01-02T11:58:45.393Z,100044.34
2023-01-02T12:01:50.403Z,100037.28
2023-01-02T12:04:19.239Z,100038.19
2023-01-02T12:07:00.393Z,100030.84
2023-01-02T12:09:57.130Z,100026.13
2023-01-02T12:12:51.283Z,100025.78
2023-01-02T12:15:25.873Z,100022.22
2023-01-02T12:18:29.473Z,100016.16
2023-01-02T12:21:26.215Z,100011.34
2023-01-02T12:24:32.095Z,100016.00
2023-01-02T12:27:26.854Z,100010.44
2023-01-02T12:30:17.754Z,100011.19
2023-01-02T12:33:48.091Z,100010.47
2023-01-02T12:36:28.511Z,100017.59
2023-01-02T12:39:28.796Z,100018.09
2023-01-02T12:42:17.982Z,100013.44
2023-01-02T12:44:53.222Z,100014.72
2023-01-02T12:47:43.381Z,100000.37
2023-01-02T12:50:37.257Z,100000.25
2023-01-02T12:53:22.122Z,100005.84
2023-01-02T12:56:16.832Z,100005.09
2023-01-02T12:59:27.697Z,99993.50
2023-01-02T13:02:05.121Z,99994.88
2023-01-02T13:04:45.513Z,99997.06
2023-01-02T13:07:37.393Z,99993.44
2023-01-02T13:10:06.718Z,99996.47
2023-01-02T13:12:36.454Z,99993.06
2023-01-02T13:15:19.646Z,99996.59
2023-01-02T13:17:51.925Z,99992.41
2023-01-02T13:20:45.131Z,99992.16
2023-01-02T13:23:24.434Z,99992.19
2023-01-02T13:25:56.050Z,99993.03
2023-01-02T13:28:24.957Z,99994.19
2023-01-02T13:31:26.696Z,99991.00
2023-01-02T13:33:51.200Z,99992.59
2023-01-02T13:36:21.831Z,99992.69
2023-01-02T13:38:54.995Z,99989.31
2023-01-02T13:41:23.513Z,99989.25
2023-01-02T13:44:01.362Z,99985.81
2023-01-02T13:47:02.043Z,99991.31
2023-01-02T13:49:21.012Z,99985.72
2023-01-02T13:51:49.261Z,99991.25
2023-01-02T13:54:21.280Z,99988.44
2023-01-02T13:57:38.073Z,99991.66
2023-01-02T14:00:54.363Z,99995.72
2023-01-02T14:03:23.896Z,99988.94
2023-01-02T14:06:01.203Z,99996.03
2023-01-02T14:09:05.146Z,99998.34
2023-01-02T14:11:58.508Z,99994.25
2023-01-02T14:14:37.291Z,100001.66
2023-01-02T14:17:27.661Z,99996.94
2023-01-02T14:20:29.461Z,99994.97
2023-01-02T14:23:03.314Z,99993.84
2023-01-02T14:25:32.980Z,99997.25
2023-01-02T14:28:03.266Z,99996.41
2023-01-02T14:30:33.910Z,99998.53
2023-01-02T14:33:05.158Z,99997.47
2023-01-02T14:35:38.630Z,99996.09
2023-01-02T14:38:17.895Z,99996.41
2023-01-02T14:40:47.369Z,99998.81
2023-01-02T14:43:32.048Z,100004.19
2023-01-02T14:46:10.860Z,100004.91
2023-01-02T14:48:48.113Z,100000.63
2023-01-02T14:51:21.947Z,99999.72
2023-01-02T14:53:55.781Z,100005.09
2023-01-02T14:56:30.901Z,100001.69
2023-01-02T14:58:59.529Z,99995.69
2023-01-02T15:01:43.169Z,100004.34
2023-01-02T15:04:28.613Z,99999.16
2023-01-02T15:07:27.686Z,100000.00
2023-01-02T15:10:01.393Z,99997.44
2023-01-02T15:12:53.483Z,99993.19
2023-01-02T15:15:25.873Z,99987.03
2023-01-02T15:17:59.273Z,99996.62
2023-01-02T15:20:27.838Z,99989.72
2023-01-02T15:22:57.139Z,99996.66
2023-01-02T15:25:34.789Z,99993.19
2023-01-02T15:28:03.692Z,99992.28
2023-01-02T15:30:38.583Z,99986.22
2023-01-02T15:33:34.283Z,99987.97
2023-01-02T15:36:05.759Z,99987.09
2023-01-02T15:38:34.354Z,99984.47
2023-01-02T15:41:02.776Z,99994.88
2023-01-02T15:44:01.984Z,99995.72
2023-01-02T15:46:30.569Z,100003.63
2023-01-02T15:48:59.824Z,100001.88
2023-01-02T15:51:40.365Z,100008.81
2023-01-02T15:54:14.443Z,99998.41
2023-01-02T15:56:42.616Z,100009.28
2023-01-02T15:59:29.645Z,100006.53
2023-01-02T16:01:58.112Z,100004.97
2023-01-02T16:04:29.698Z,100005.09
2023-01-02T16:06:59.063Z,100006.72
2023-01-02T16:09:31.872Z,100019.34
2023-01-02T16:12:02.437Z,100018.47
2023-01-02T16:14:44.661Z,100013.03
2023-01-02T16:17:32.000Z,100019.47
2023-01-02T16:20:22.245Z,100009.00
2023-01-02T16:22:53.535Z,100020.44
2023-01-02T16:25:28.176Z,100017.97
2023-01-02T16:28:35.011Z,100014.50
2023-01-02T16:31:14.600Z,100022.38
2023-01-02T16:33:46.108Z,100021.50
2023-01-02T16:36:15.505Z,100019.53
2023-01-02T16:39:02.615Z,100023.25
2023-01-02T16:41:36.409Z,100021.59
2023-01-02T16:44:14.368Z,100029.50
2023-01-02T16:46:53.514Z,100019.75
2023-01-02T16:49:23.098Z,100018.97
2023-01-02T16:51:55.844Z,100021.59
2023-01-02T16:54:26.016Z,100022.47
2023-01-02T16:57:00.275Z,100025.81
2023-01-02T16:59:32.103Z,100024.06
2023-01-02T17:02:06.377Z,100030.22
2023-01-02T17:04:38.308Z,100026.75
2023-01-02T17:07:08.276Z,100031.16
2023-01-02T17:09:36.473Z,100028.59
2023-01-02T17:12:05.300Z,100032.12
2023-01-02T17:14:34.411Z,100030.31
2023-01-02T17:17:08.240Z,100030.34
2023-01-02T17:19:45.861Z,100025.12
2023-01-02T17:22:22.706Z,100039.91
2023-01-02T17:25:04.321Z,100029.47
2023-01-02T17:27:36.683Z,100036.41
2023-01-02T17:30:07.421Z,100034.69
2023-01-02T17:32:36.555Z,100042.38
2023-01-02T17:35:07.203Z,100030.41
2023-01-02T17:37:39.970Z,100039.91
2023-01-02T17:40:13.966Z,100042.50
2023-01-02T17:42:45.343Z,100043.38
2023-01-02T17:45:14.245Z,100046.84
2023-01-02T17:48:05.442Z,100042.50
2023-01-02T17:50:33.706Z,100033.81
2023-01-02T17:53:02.732Z,100035.56
2023-01-02T17:55:31.085Z,100032.09
2023-01-02T17:58:01.839Z,100036.47
2023-01-02T18:00:30.876Z,100043.31
2023-01-02T18:02:59.721Z,100033.87
2023-01-02T18:05:27.976Z,100033.09
2023-01-02T18:07:56.027Z,100025.12
2023-01-02T18:10:29.178Z,100032.63
2023-01-02T18:13:01.035Z,100032.72
2023-01-02T18:15:30.341Z,100032.81
2023-01-02T18:18:00.689Z,100028.16
2023-01-02T18:20:30.341Z,100026.72
2023-01-02T18:23:01.412Z,100024.22
2023-01-02T18:25:31.348Z,100025.91
2023-01-02T18:28:25.147Z,100024.13
2023-01-02T18:30:58.598Z,100024.13
2023-01-02T18:33:28.668Z,100025.84
2023-01-02T18:36:03.843Z,100028.69
2023-01-02T18:38:38.808Z,100030.22
2023-01-02T18:41:26.926Z,100026.75
2023-01-02T18:44:25.019Z,100028.22
2023-01-02T18:47:11.733Z,100028.06
2023-01-02T18:49:43.903Z,100029.28
2023-01-02T18:52:14.276Z,100028.94
2023-01-02T18:54:49.694Z,100023.03
2023-01-02T18:57:29.061Z,100025.53
2023-01-02T19:00:09.004Z,100020.34
2023-01-02T19:02:50.576Z,100026.31
2023-01-02T19:05:25.001Z,100023.13
2023-01-02T19:08:29.245Z,100022.97
2023-01-02T19:11:20.174Z,100022.12
2023-01-02T19:13:51.450Z,100027.34
2023-01-02T19:16:24.320Z,100026.47
2023-01-02T19:18:55.551Z,100034.25
2023-01-02T19:21:26.994Z,100037.78
2023-01-02T19:24:04.962Z,100026.41
2023-01-02T19:26:42.466Z,100029.75
2023-01-02T19:29:11.414Z,100038.53
2023-01-02T19:31:43.204Z,100034.25
2023-01-02T19:34:34.894Z,100027.19
2023-01-02T19:37:28.253Z,100031.16
2023-01-02T19:40:03.289Z,100027.28
2023-01-02T19:42:33.618Z,100030.78
2023-01-02T19:45:16.844Z,100038.28
2023-01-02T19:47:45.849Z,100044.56
2023-01-02T19:50:16.940Z,100038.56
2023-01-02T19:52:45.618Z,100048.84
2023-01-02T19:55:14.509Z,100042.56
2023-01-02T19:57:42.622Z,100044.53
2023-01-02T20:00:13.338Z,100054.00
2023-01-02T20:02:54.119Z,100050.34
2023-01-02T20:05:23.491Z,100054.75
2023-01-02T20:07:53.285Z,100060.84
2023-01-02T20:10:22.484Z,100059.94
2023-01-02T20:12:51.044Z,100054.88
2023-01-02T20:15:23.864Z,100064.44
2023-01-02T20:17:53.756Z,100062.00
2023-01-02T20:20:24.594Z,100068.63
2023-01-02T20:22:55.193Z,100061.00
2023-01-02T20:25:26.574Z,100060.03
2023-01-02T20:27:56.507Z,100060.56
2023-01-02T20:30:28.399Z,100057.06
2023-01-02T20:32:56.976Z,100061.72
2023-01-02T20:35:25.193Z,100060.66
2023-01-02T20:37:53.270Z,100062.12
2023-01-02T20:40:21.815Z,100064.59
2023-01-02T20:42:50.062Z,100057.44
2023-01-02T20:45:18.346Z,100062.91
2023-01-02T20:47:47.065Z,100061.75
2023-01-02T20:50:15.213Z,100058.78
2023-01-02T20:52:43.487Z,100055.66
2023-01-02T20:55:11.932Z,100062.59
2023-01-02T20:57:40.066Z,100060.28
2023-01-02T21:00:11.368Z,100062.16
2023-01-02T21:02:42.149Z,100062.81
2023-01-02T21:05:10.699Z,100061.91
2023-01-02T21:07:38.917Z,100056.84
2023-01-02T21:10:08.992Z,100061.88
2023-01-02T21:12:55.720Z,100065.22
2023-01-02T21:15:42.745Z,100069.88
2023-01-02T21:18:13.365Z,100076.72
2023-01-02T21:20:46.637Z,100069.97
2023-01-02T21:23:16.135Z,100073.69
2023-01-02T21:25:45.256Z,100077.19
2023-01-02T21:28:14.106Z,100066.78
2023-01-02T21:30:45.924Z,100071.69
2023-01-02T21:33:16.524Z,100081.22
2023-01-02T21:35:46.597Z,100081.37
2023-01-02T21:38:18.683Z,100081.00
2023-01-02T21:40:47.197Z,100080.97
2023-01-02T21:43:15.806Z,100085.31
2023-01-02T21:45:46.864Z,100089.53
2023-01-02T21:48:15.501Z,100085.72
2023-01-02T21:50:47.311Z,100095.09
2023-01-02T21:53:17.000Z,100095.09
2023-01-02T21:55:46.461Z,100089.38
2023-01-02T21:58:15.168Z,100098.25
2023-01-02T22:00:46.439Z,100100.66
2023-01-02T22:03:15.079Z,100100.06
2023-01-02T22:05:43.241Z,100099.25
2023-01-02T22:08:11.365Z,100095.63
2023-01-02T22:10:42.924Z,100098.34
2023-01-02T22:13:11.213Z,100097.56
2023-01-02T22:15:39.800Z,100104.94
2023-01-02T22:18:08.038Z,100100.41
2023-01-02T22:20:36.387Z,100094.06
2023-01-02T22:23:04.911Z,100093.28
2023-01-02T22:25:33.358Z,100100.97
2023-01-02T22:28:01.559Z,100095.34
2023-01-02T22:30:34.412Z,100100.03
2023-01-02T22:33:03.609Z,100100.66
2023-01-02T22:35:33.033Z,100104.87
2023-01-02T22:38:01.194Z,100100.56
2023-01-02T22:40:29.493Z,100100.59
2023-01-02T22:43:00.972Z,100095.69
2023-01-02T22:45:34.395Z,100086.00
2023-01-02T22:48:08.793Z,100076.34
2023-01-02T22:50:44.843Z,100092.03
2023-01-02T22:53:16.260Z,100096.62
2023-01-02T22:55:44.359Z,100094.66
2023-01-02T22:58:13.469Z,100098.19
2023-01-02T23:00:41.997Z,100092.88
2023-01-02T23:03:14.757Z,100094.59
2023-01-02T23:05:43.507Z,100093.31
2023-01-02T23:08:11.649Z,100090.72
2023-01-02T23:10:39.904Z,100090.81
2023-01-02T23:13:11.279Z,100092.25
2023-01-02T23:16:00.191Z,100099.28
2023-01-02T23:18:53.055Z,100083.09
2023-01-02T23:21:33.938Z,100087.53
2023-01-02T23:24:02.908Z,100092.63
2023-01-02T23:26:41.772Z,100085.72
2023-01-02T23:29:11.471Z,100097.44
2023-01-02T23:31:42.314Z,100109.59
2023-01-02T23:34:12.990Z,100100.34
2023-01-02T23:36:43.945Z,100104.41
2023-01-02T23:39:15.800Z,100102.03
2023-01-02T23:41:44.709Z,100096.72
2023-01-02T23:44:13.724Z,100100.91
2023-01-02T23:46:42.463Z,100094.13
2023-01-02T23:49:11.503Z,100091.59
2023-01-02T23:51:40.975Z,100090.59
2023-01-02T23:54:10.953Z,100094.31
2023-01-02T23:56:41.162Z,100090.44
2023-01-02T23:59:12.036Z,100101.87
